sensor_id;sensor_type;location;lat;lon;timestamp;P1;durP1;ratioP1;P2;durP2;ratioP2
22066;SDS011;72821;49.814;19.034;2023-11-21T00:02:00;5.35;;;3.10;;
22066;SDS011;72821;49.814;19.034;2023-11-21T00:07:02;6.30;;;2.50;;
22066;SDS011;72821;49.814;19.034;2023-11-21T00:12:04;5.15;;;2.65;;
22066;SDS011;72821;49.814;19.034;2023-11-21T00:17:07;5.63;;;2.33;;
22066;SDS011;72821;49.814;19.034;2023-11-21T00:22:10;5.75;;;2.55;;
22066;SDS011;72821;49.814;19.034;2023-11-21T00:27:12;4.95;;;2.20;;
22066;SDS011;72821;49.814;19.034;2023-11-21T00:32:14;6.90;;;2.08;;
22066;SDS011;72821;49.814;19.034;2023-11-21T00:37:17;5.25;;;2.15;;
22066;SDS011;72821;49.814;19.034;2023-11-21T00:42:19;7.28;;;3.20;;
22066;SDS011;72821;49.814;19.034;2023-11-21T00:47:23;5.78;;;2.65;;
22066;SDS011;72821;49.814;19.034;2023-11-21T00:52:25;7.10;;;2.55;;
22066;SDS011;72821;49.814;19.034;2023-11-21T00:57:27;5.78;;;2.20;;
22066;SDS011;72821;49.814;19.034;2023-11-21T01:02:30;4.13;;;1.90;;
22066;SDS011;72821;49.814;19.034;2023-11-21T01:07:32;6.55;;;2.45;;
22066;SDS011;72821;49.814;19.034;2023-11-21T01:12:34;4.72;;;2.05;;
22066;SDS011;72821;49.814;19.034;2023-11-21T01:17:38;4.07;;;1.67;;
22066;SDS011;72821;49.814;19.034;2023-11-21T01:22:41;7.65;;;2.33;;
22066;SDS011;72821;49.814;19.034;2023-11-21T01:27:43;8.50;;;3.08;;
22066;SDS011;72821;49.814;19.034;2023-11-21T01:32:46;7.90;;;3.30;;
22066;SDS011;72821;49.814;19.034;2023-11-21T01:37:48;7.93;;;3.63;;
22066;SDS011;72821;49.814;19.034;2023-11-21T01:42:52;5.38;;;2.60;;
22066;SDS011;72821;49.814;19.034;2023-11-21T01:47:54;5.95;;;3.13;;
22066;SDS011;72821;49.814;19.034;2023-11-21T01:52:58;6.60;;;2.88;;
22066;SDS011;72821;49.814;19.034;2023-11-21T01:58:01;3.70;;;2.00;;
22066;SDS011;72821;49.814;19.034;2023-11-21T02:03:04;4.70;;;2.20;;
22066;SDS011;72821;49.814;19.034;2023-11-21T02:08:08;5.60;;;2.25;;
22066;SDS011;72821;49.814;19.034;2023-11-21T02:13:11;4.80;;;2.15;;
22066;SDS011;72821;49.814;19.034;2023-11-21T02:18:13;4.00;;;2.15;;
22066;SDS011;72821;49.814;19.034;2023-11-21T02:23:17;3.50;;;1.90;;
22066;SDS011;72821;49.814;19.034;2023-11-21T02:28:19;4.72;;;1.95;;
22066;SDS011;72821;49.814;19.034;2023-11-21T02:33:28;4.68;;;1.90;;
22066;SDS011;72821;49.814;19.034;2023-11-21T02:38:30;4.35;;;1.95;;
22066;SDS011;72821;49.814;19.034;2023-11-21T02:43:32;4.50;;;1.70;;
22066;SDS011;72821;49.814;19.034;2023-11-21T02:48:34;4.65;;;1.98;;
22066;SDS011;72821;49.814;19.034;2023-11-21T02:53:37;4.78;;;2.13;;
22066;SDS011;72821;49.814;19.034;2023-11-21T02:58:43;5.63;;;1.88;;
22066;SDS011;72821;49.814;19.034;2023-11-21T03:03:46;4.10;;;1.60;;
22066;SDS011;72821;49.814;19.034;2023-11-21T03:08:52;2.50;;;1.50;;
22066;SDS011;72821;49.814;19.034;2023-11-21T03:13:54;3.42;;;1.73;;
22066;SDS011;72821;49.814;19.034;2023-11-21T03:18:57;4.15;;;1.80;;
22066;SDS011;72821;49.814;19.034;2023-11-21T03:23:59;3.90;;;2.20;;
22066;SDS011;72821;49.814;19.034;2023-11-21T03:29:01;3.35;;;1.50;;
22066;SDS011;72821;49.814;19.034;2023-11-21T03:34:04;3.60;;;1.60;;
22066;SDS011;72821;49.814;19.034;2023-11-21T03:39:06;4.32;;;2.03;;
22066;SDS011;72821;49.814;19.034;2023-11-21T03:44:08;4.55;;;2.00;;
22066;SDS011;72821;49.814;19.034;2023-11-21T03:49:10;3.88;;;1.67;;
22066;SDS011;72821;49.814;19.034;2023-11-21T03:54:12;3.53;;;1.77;;
22066;SDS011;72821;49.814;19.034;2023-11-21T03:59:16;4.97;;;2.30;;
22066;SDS011;72821;49.814;19.034;2023-11-21T04:04:18;3.53;;;1.75;;
22066;SDS011;72821;49.814;19.034;2023-11-21T04:09:21;3.78;;;1.55;;
22066;SDS011;72821;49.814;19.034;2023-11-21T04:14:26;4.15;;;1.65;;
22066;SDS011;72821;49.814;19.034;2023-11-21T04:19:28;3.83;;;1.65;;
22066;SDS011;72821;49.814;19.034;2023-11-21T04:24:31;4.32;;;1.75;;
22066;SDS011;72821;49.814;19.034;2023-11-21T04:29:33;5.40;;;2.40;;
22066;SDS011;72821;49.814;19.034;2023-11-21T04:34:36;5.53;;;1.90;;
22066;SDS011;72821;49.814;19.034;2023-11-21T04:39:39;6.50;;;1.88;;
22066;SDS011;72821;49.814;19.034;2023-11-21T04:44:41;5.18;;;2.08;;
22066;SDS011;72821;49.814;19.034;2023-11-21T04:49:43;5.13;;;2.45;;
22066;SDS011;72821;49.814;19.034;2023-11-21T04:54:48;4.13;;;2.08;;
22066;SDS011;72821;49.814;19.034;2023-11-21T04:59:51;3.85;;;1.85;;
22066;SDS011;72821;49.814;19.034;2023-11-21T05:04:53;4.05;;;1.70;;
22066;SDS011;72821;49.814;19.034;2023-11-21T05:09:55;3.70;;;1.60;;
22066;SDS011;72821;49.814;19.034;2023-11-21T05:14:57;3.70;;;1.73;;
22066;SDS011;72821;49.814;19.034;2023-11-21T05:19:59;3.78;;;1.63;;
22066;SDS011;72821;49.814;19.034;2023-11-21T05:25:05;4.03;;;2.05;;
22066;SDS011;72821;49.814;19.034;2023-11-21T05:30:09;6.30;;;2.22;;
22066;SDS011;72821;49.814;19.034;2023-11-21T05:35:14;4.38;;;1.95;;
22066;SDS011;72821;49.814;19.034;2023-11-21T05:40:19;5.07;;;2.42;;
22066;SDS011;72821;49.814;19.034;2023-11-21T05:45:24;3.78;;;2.35;;
22066;SDS011;72821;49.814;19.034;2023-11-21T05:50:26;6.22;;;2.85;;
22066;SDS011;72821;49.814;19.034;2023-11-21T05:55:28;6.30;;;2.45;;
22066;SDS011;72821;49.814;19.034;2023-11-21T06:00:31;5.32;;;2.70;;
22066;SDS011;72821;49.814;19.034;2023-11-21T06:05:33;5.53;;;2.60;;
22066;SDS011;72821;49.814;19.034;2023-11-21T06:10:36;4.25;;;2.33;;
22066;SDS011;72821;49.814;19.034;2023-11-21T06:15:38;3.95;;;2.35;;
22066;SDS011;72821;49.814;19.034;2023-11-21T06:20:40;6.85;;;2.83;;
22066;SDS011;72821;49.814;19.034;2023-11-21T06:25:42;5.45;;;3.03;;
22066;SDS011;72821;49.814;19.034;2023-11-21T06:30:44;5.45;;;2.50;;
22066;SDS011;72821;49.814;19.034;2023-11-21T06:35:47;6.28;;;2.38;;
22066;SDS011;72821;49.814;19.034;2023-11-21T06:40:49;5.85;;;2.45;;
22066;SDS011;72821;49.814;19.034;2023-11-21T06:45:51;5.28;;;2.60;;
22066;SDS011;72821;49.814;19.034;2023-11-21T06:50:53;4.25;;;2.50;;
22066;SDS011;72821;49.814;19.034;2023-11-21T06:55:55;6.30;;;3.00;;
22066;SDS011;72821;49.814;19.034;2023-11-21T07:00:57;6.72;;;2.88;;
22066;SDS011;72821;49.814;19.034;2023-11-21T07:06:00;4.43;;;2.88;;
22066;SDS011;72821;49.814;19.034;2023-11-21T07:11:02;6.70;;;3.20;;
22066;SDS011;72821;49.814;19.034;2023-11-21T07:16:05;7.60;;;3.30;;
22066;SDS011;72821;49.814;19.034;2023-11-21T07:21:07;5.57;;;2.97;;
22066;SDS011;72821;49.814;19.034;2023-11-21T07:26:10;6.07;;;3.65;;
22066;SDS011;72821;49.814;19.034;2023-11-21T07:31:12;6.28;;;3.30;;
22066;SDS011;72821;49.814;19.034;2023-11-21T07:36:15;6.60;;;3.35;;
22066;SDS011;72821;49.814;19.034;2023-11-21T07:41:20;6.85;;;4.25;;
22066;SDS011;72821;49.814;19.034;2023-11-21T07:46:31;7.60;;;3.80;;
22066;SDS011;72821;49.814;19.034;2023-11-21T07:51:34;7.15;;;3.45;;
22066;SDS011;72821;49.814;19.034;2023-11-21T07:56:36;5.00;;;2.70;;
22066;SDS011;72821;49.814;19.034;2023-11-21T08:01:38;6.10;;;2.67;;
22066;SDS011;72821;49.814;19.034;2023-11-21T08:06:42;3.70;;;2.17;;
22066;SDS011;72821;49.814;19.034;2023-11-21T08:11:44;5.30;;;2.30;;
22066;SDS011;72821;49.814;19.034;2023-11-21T08:16:48;4.35;;;2.15;;
22066;SDS011;72821;49.814;19.034;2023-11-21T08:21:51;5.65;;;2.80;;
22066;SDS011;72821;49.814;19.034;2023-11-21T08:26:56;5.85;;;2.67;;
22066;SDS011;72821;49.814;19.034;2023-11-21T08:31:58;7.38;;;3.20;;
22066;SDS011;72821;49.814;19.034;2023-11-21T08:37:01;5.10;;;2.35;;
22066;SDS011;72821;49.814;19.034;2023-11-21T08:42:03;4.43;;;2.03;;
22066;SDS011;72821;49.814;19.034;2023-11-21T08:47:06;5.25;;;2.30;;
22066;SDS011;72821;49.814;19.034;2023-11-21T08:52:09;4.10;;;2.05;;
22066;SDS011;72821;49.814;19.034;2023-11-21T08:57:12;5.90;;;2.30;;
22066;SDS011;72821;49.814;19.034;2023-11-21T09:02:14;5.80;;;2.70;;
22066;SDS011;72821;49.814;19.034;2023-11-21T09:07:21;4.60;;;2.20;;
22066;SDS011;72821;49.814;19.034;2023-11-21T09:12:23;7.72;;;2.75;;
22066;SDS011;72821;49.814;19.034;2023-11-21T09:17:26;8.02;;;2.60;;
22066;SDS011;72821;49.814;19.034;2023-11-21T09:22:28;5.85;;;2.72;;
22066;SDS011;72821;49.814;19.034;2023-11-21T09:27:32;6.85;;;2.65;;
22066;SDS011;72821;49.814;19.034;2023-11-21T09:32:34;5.95;;;2.35;;
22066;SDS011;72821;49.814;19.034;2023-11-21T09:37:38;5.35;;;2.45;;
22066;SDS011;72821;49.814;19.034;2023-11-21T09:42:48;5.13;;;2.80;;
22066;SDS011;72821;49.814;19.034;2023-11-21T09:47:56;8.60;;;3.75;;
22066;SDS011;72821;49.814;19.034;2023-11-21T09:58:22;7.22;;;3.28;;
22066;SDS011;72821;49.814;19.034;2023-11-21T10:03:27;8.50;;;3.38;;
22066;SDS011;72821;49.814;19.034;2023-11-21T10:08:29;7.75;;;2.90;;
22066;SDS011;72821;49.814;19.034;2023-11-21T10:13:51;4.05;;;2.65;;
22066;SDS011;72821;49.814;19.034;2023-11-21T10:18:55;5.57;;;2.80;;
22066;SDS011;72821;49.814;19.034;2023-11-21T10:24:11;8.75;;;4.22;;
22066;SDS011;72821;49.814;19.034;2023-11-21T10:29:14;7.53;;;4.50;;
22066;SDS011;72821;49.814;19.034;2023-11-21T10:34:20;7.82;;;3.97;;
22066;SDS011;72821;49.814;19.034;2023-11-21T10:39:23;7.53;;;4.25;;
22066;SDS011;72821;49.814;19.034;2023-11-21T10:44:32;9.70;;;4.28;;
22066;SDS011;72821;49.814;19.034;2023-11-21T10:49:34;7.60;;;4.22;;
22066;SDS011;72821;49.814;19.034;2023-11-21T10:54:39;7.40;;;3.33;;
22066;SDS011;72821;49.814;19.034;2023-11-21T10:59:41;6.78;;;3.33;;
22066;SDS011;72821;49.814;19.034;2023-11-21T11:04:44;9.98;;;4.53;;
22066;SDS011;72821;49.814;19.034;2023-11-21T11:09:47;8.73;;;3.88;;
22066;SDS011;72821;49.814;19.034;2023-11-21T11:14:49;10.10;;;3.90;;
22066;SDS011;72821;49.814;19.034;2023-11-21T11:19:53;8.57;;;3.55;;
22066;SDS011;72821;49.814;19.034;2023-11-21T11:30:54;7.95;;;4.00;;
22066;SDS011;72821;49.814;19.034;2023-11-21T11:36:23;7.93;;;4.22;;
22066;SDS011;72821;49.814;19.034;2023-11-21T11:41:37;7.85;;;3.88;;
22066;SDS011;72821;49.814;19.034;2023-11-21T11:46:43;8.10;;;3.22;;
22066;SDS011;72821;49.814;19.034;2023-11-21T11:57:13;7.60;;;2.78;;
22066;SDS011;72821;49.814;19.034;2023-11-21T12:02:15;6.32;;;2.58;;
22066;SDS011;72821;49.814;19.034;2023-11-21T12:07:18;5.93;;;2.65;;
22066;SDS011;72821;49.814;19.034;2023-11-21T12:12:21;7.32;;;2.83;;
22066;SDS011;72821;49.814;19.034;2023-11-21T12:17:23;6.45;;;2.67;;
22066;SDS011;72821;49.814;19.034;2023-11-21T12:22:25;7.18;;;3.17;;
22066;SDS011;72821;49.814;19.034;2023-11-21T12:27:28;7.53;;;3.13;;
22066;SDS011;72821;49.814;19.034;2023-11-21T12:32:31;6.63;;;2.72;;
22066;SDS011;72821;49.814;19.034;2023-11-21T12:37:34;5.03;;;2.83;;
22066;SDS011;72821;49.814;19.034;2023-11-21T12:42:36;7.18;;;2.80;;
22066;SDS011;72821;49.814;19.034;2023-11-21T12:47:38;5.97;;;2.53;;
22066;SDS011;72821;49.814;19.034;2023-11-21T12:52:41;7.95;;;3.10;;
22066;SDS011;72821;49.814;19.034;2023-11-21T12:57:52;8.70;;;4.18;;
22066;SDS011;72821;49.814;19.034;2023-11-21T13:02:59;7.22;;;3.42;;
22066;SDS011;72821;49.814;19.034;2023-11-21T13:08:02;5.88;;;2.70;;
22066;SDS011;72821;49.814;19.034;2023-11-21T13:13:09;8.40;;;3.10;;
22066;SDS011;72821;49.814;19.034;2023-11-21T13:18:19;5.75;;;2.97;;
22066;SDS011;72821;49.814;19.034;2023-11-21T13:23:23;8.82;;;3.08;;
22066;SDS011;72821;49.814;19.034;2023-11-21T13:28:26;8.18;;;3.42;;
22066;SDS011;72821;49.814;19.034;2023-11-21T13:33:33;8.63;;;3.63;;
22066;SDS011;72821;49.814;19.034;2023-11-21T13:38:39;10.05;;;4.90;;
22066;SDS011;72821;49.814;19.034;2023-11-21T13:43:45;9.93;;;5.25;;
22066;SDS011;72821;49.814;19.034;2023-11-21T13:48:54;8.55;;;4.25;;
22066;SDS011;72821;49.814;19.034;2023-11-21T13:53:58;9.40;;;4.57;;
22066;SDS011;72821;49.814;19.034;2023-11-21T13:59:00;8.80;;;4.45;;
22066;SDS011;72821;49.814;19.034;2023-11-21T14:04:11;11.68;;;5.15;;
22066;SDS011;72821;49.814;19.034;2023-11-21T14:09:22;10.02;;;5.60;;
22066;SDS011;72821;49.814;19.034;2023-11-21T14:14:27;10.38;;;5.72;;
22066;SDS011;72821;49.814;19.034;2023-11-21T14:19:30;10.27;;;5.93;;
22066;SDS011;72821;49.814;19.034;2023-11-21T14:24:34;12.27;;;6.68;;
22066;SDS011;72821;49.814;19.034;2023-11-21T14:29:37;11.02;;;6.30;;
22066;SDS011;72821;49.814;19.034;2023-11-21T14:34:41;9.48;;;5.18;;
22066;SDS011;72821;49.814;19.034;2023-11-21T14:39:47;10.40;;;5.35;;
22066;SDS011;72821;49.814;19.034;2023-11-21T14:44:51;10.25;;;5.68;;
22066;SDS011;72821;49.814;19.034;2023-11-21T14:49:54;16.67;;;7.40;;
22066;SDS011;72821;49.814;19.034;2023-11-21T14:54:58;11.63;;;6.07;;
22066;SDS011;72821;49.814;19.034;2023-11-21T15:00:22;14.80;;;6.85;;
22066;SDS011;72821;49.814;19.034;2023-11-21T15:05:37;13.35;;;6.93;;
22066;SDS011;72821;49.814;19.034;2023-11-21T15:10:41;15.73;;;7.50;;
22066;SDS011;72821;49.814;19.034;2023-11-21T15:15:54;13.00;;;6.75;;
22066;SDS011;72821;49.814;19.034;2023-11-21T15:21:02;13.75;;;6.35;;
22066;SDS011;72821;49.814;19.034;2023-11-21T15:26:09;14.38;;;7.00;;
22066;SDS011;72821;49.814;19.034;2023-11-21T15:31:12;14.57;;;6.15;;
22066;SDS011;72821;49.814;19.034;2023-11-21T15:36:18;13.52;;;7.13;;
22066;SDS011;72821;49.814;19.034;2023-11-21T15:41:21;11.40;;;6.65;;
22066;SDS011;72821;49.814;19.034;2023-11-21T15:46:24;16.15;;;7.82;;
22066;SDS011;72821;49.814;19.034;2023-11-21T15:51:26;13.10;;;6.65;;
22066;SDS011;72821;49.814;19.034;2023-11-21T15:56:28;13.43;;;7.63;;
22066;SDS011;72821;49.814;19.034;2023-11-21T16:01:30;13.80;;;7.35;;
22066;SDS011;72821;49.814;19.034;2023-11-21T16:06:33;15.32;;;6.63;;
22066;SDS011;72821;49.814;19.034;2023-11-21T16:11:41;14.50;;;8.05;;
22066;SDS011;72821;49.814;19.034;2023-11-21T16:16:43;13.68;;;6.88;;
22066;SDS011;72821;49.814;19.034;2023-11-21T16:21:48;13.18;;;6.55;;
22066;SDS011;72821;49.814;19.034;2023-11-21T16:26:50;12.00;;;5.93;;
22066;SDS011;72821;49.814;19.034;2023-11-21T16:31:52;10.43;;;5.63;;
22066;SDS011;72821;49.814;19.034;2023-11-21T16:36:56;9.18;;;5.30;;
22066;SDS011;72821;49.814;19.034;2023-11-21T16:41:58;9.65;;;5.45;;
22066;SDS011;72821;49.814;19.034;2023-11-21T16:47:00;11.02;;;6.43;;
22066;SDS011;72821;49.814;19.034;2023-11-21T16:52:08;14.07;;;7.03;;
22066;SDS011;72821;49.814;19.034;2023-11-21T16:57:11;13.55;;;8.23;;
22066;SDS011;72821;49.814;19.034;2023-11-21T17:02:13;18.10;;;10.20;;
22066;SDS011;72821;49.814;19.034;2023-11-21T17:07:16;16.58;;;10.50;;
22066;SDS011;72821;49.814;19.034;2023-11-21T17:12:22;16.52;;;9.65;;
22066;SDS011;72821;49.814;19.034;2023-11-21T17:17:25;15.63;;;9.63;;
22066;SDS011;72821;49.814;19.034;2023-11-21T17:22:29;14.27;;;8.40;;
22066;SDS011;72821;49.814;19.034;2023-11-21T17:27:31;14.43;;;8.82;;
22066;SDS011;72821;49.814;19.034;2023-11-21T17:32:33;12.73;;;7.28;;
22066;SDS011;72821;49.814;19.034;2023-11-21T17:37:36;9.73;;;6.15;;
22066;SDS011;72821;49.814;19.034;2023-11-21T17:42:38;12.98;;;7.30;;
22066;SDS011;72821;49.814;19.034;2023-11-21T17:47:41;13.82;;;7.07;;
22066;SDS011;72821;49.814;19.034;2023-11-21T17:52:45;13.77;;;8.00;;
22066;SDS011;72821;49.814;19.034;2023-11-21T17:57:47;15.65;;;8.93;;
22066;SDS011;72821;49.814;19.034;2023-11-21T18:02:49;18.55;;;10.48;;
22066;SDS011;72821;49.814;19.034;2023-11-21T18:07:52;20.15;;;12.35;;
22066;SDS011;72821;49.814;19.034;2023-11-21T18:12:54;21.85;;;13.57;;
22066;SDS011;72821;49.814;19.034;2023-11-21T18:17:56;25.75;;;13.88;;
22066;SDS011;72821;49.814;19.034;2023-11-21T18:22:59;21.20;;;12.75;;
22066;SDS011;72821;49.814;19.034;2023-11-21T18:28:01;21.55;;;12.45;;
22066;SDS011;72821;49.814;19.034;2023-11-21T18:33:04;20.90;;;12.35;;
22066;SDS011;72821;49.814;19.034;2023-11-21T18:38:06;18.45;;;11.73;;
22066;SDS011;72821;49.814;19.034;2023-11-21T18:43:08;20.85;;;11.88;;
22066;SDS011;72821;49.814;19.034;2023-11-21T18:48:10;17.75;;;10.55;;
22066;SDS011;72821;49.814;19.034;2023-11-21T18:53:14;18.90;;;10.32;;
22066;SDS011;72821;49.814;19.034;2023-11-21T18:58:17;20.63;;;13.32;;
22066;SDS011;72821;49.814;19.034;2023-11-21T19:03:19;17.30;;;11.00;;
22066;SDS011;72821;49.814;19.034;2023-11-21T19:08:22;18.73;;;12.55;;
22066;SDS011;72821;49.814;19.034;2023-11-21T19:13:24;21.63;;;13.40;;
22066;SDS011;72821;49.814;19.034;2023-11-21T19:18:26;22.13;;;13.80;;
22066;SDS011;72821;49.814;19.034;2023-11-21T19:23:28;21.38;;;13.07;;
22066;SDS011;72821;49.814;19.034;2023-11-21T19:28:30;22.48;;;13.20;;
22066;SDS011;72821;49.814;19.034;2023-11-21T19:33:33;20.85;;;13.52;;
22066;SDS011;72821;49.814;19.034;2023-11-21T19:38:37;24.60;;;14.27;;
22066;SDS011;72821;49.814;19.034;2023-11-21T19:43:39;25.80;;;15.20;;
22066;SDS011;72821;49.814;19.034;2023-11-21T19:48:42;21.63;;;12.85;;
22066;SDS011;72821;49.814;19.034;2023-11-21T19:53:44;23.35;;;14.02;;
22066;SDS011;72821;49.814;19.034;2023-11-21T19:58:47;24.23;;;14.75;;
22066;SDS011;72821;49.814;19.034;2023-11-21T20:03:51;25.75;;;13.88;;
22066;SDS011;72821;49.814;19.034;2023-11-21T20:08:56;27.45;;;14.52;;
22066;SDS011;72821;49.814;19.034;2023-11-21T20:14:01;24.13;;;13.18;;
22066;SDS011;72821;49.814;19.034;2023-11-21T20:19:04;23.92;;;13.63;;
22066;SDS011;72821;49.814;19.034;2023-11-21T20:24:09;22.45;;;13.13;;
22066;SDS011;72821;49.814;19.034;2023-11-21T20:29:14;21.40;;;13.02;;
22066;SDS011;72821;49.814;19.034;2023-11-21T20:34:18;22.48;;;13.32;;
22066;SDS011;72821;49.814;19.034;2023-11-21T20:39:21;22.73;;;12.98;;
22066;SDS011;72821;49.814;19.034;2023-11-21T20:44:24;17.98;;;10.35;;
22066;SDS011;72821;49.814;19.034;2023-11-21T20:49:27;16.75;;;10.85;;
22066;SDS011;72821;49.814;19.034;2023-11-21T20:54:42;16.40;;;9.68;;
22066;SDS011;72821;49.814;19.034;2023-11-21T20:59:46;17.20;;;10.10;;
22066;SDS011;72821;49.814;19.034;2023-11-21T21:04:49;16.10;;;9.15;;
22066;SDS011;72821;49.814;19.034;2023-11-21T21:09:51;16.92;;;9.77;;
22066;SDS011;72821;49.814;19.034;2023-11-21T21:14:54;14.68;;;8.23;;
22066;SDS011;72821;49.814;19.034;2023-11-21T21:20:00;16.77;;;9.60;;
22066;SDS011;72821;49.814;19.034;2023-11-21T21:25:02;13.63;;;8.35;;
22066;SDS011;72821;49.814;19.034;2023-11-21T21:30:05;16.45;;;10.30;;
22066;SDS011;72821;49.814;19.034;2023-11-21T21:35:08;13.20;;;8.85;;
22066;SDS011;72821;49.814;19.034;2023-11-21T21:40:11;13.57;;;7.43;;
22066;SDS011;72821;49.814;19.034;2023-11-21T21:45:13;12.13;;;6.20;;
22066;SDS011;72821;49.814;19.034;2023-11-21T21:50:15;8.75;;;5.40;;
22066;SDS011;72821;49.814;19.034;2023-11-21T21:55:18;6.65;;;4.35;;
22066;SDS011;72821;49.814;19.034;2023-11-21T22:00:20;6.38;;;4.13;;
22066;SDS011;72821;49.814;19.034;2023-11-21T22:05:25;7.50;;;4.55;;
22066;SDS011;72821;49.814;19.034;2023-11-21T22:10:27;6.57;;;3.63;;
22066;SDS011;72821;49.814;19.034;2023-11-21T22:15:29;6.95;;;3.60;;
22066;SDS011;72821;49.814;19.034;2023-11-21T22:20:31;6.47;;;3.75;;
22066;SDS011;72821;49.814;19.034;2023-11-21T22:25:34;7.22;;;4.38;;
22066;SDS011;72821;49.814;19.034;2023-11-21T22:30:37;6.75;;;4.80;;
22066;SDS011;72821;49.814;19.034;2023-11-21T22:35:39;12.25;;;6.32;;
22066;SDS011;72821;49.814;19.034;2023-11-21T22:40:47;9.88;;;5.55;;
22066;SDS011;72821;49.814;19.034;2023-11-21T22:45:49;9.45;;;5.45;;
22066;SDS011;72821;49.814;19.034;2023-11-21T22:50:51;12.20;;;6.38;;
22066;SDS011;72821;49.814;19.034;2023-11-21T22:55:54;11.55;;;6.05;;
22066;SDS011;72821;49.814;19.034;2023-11-21T23:00:56;11.60;;;6.15;;
22066;SDS011;72821;49.814;19.034;2023-11-21T23:05:59;11.93;;;6.03;;
22066;SDS011;72821;49.814;19.034;2023-11-21T23:11:01;7.63;;;5.22;;
22066;SDS011;72821;49.814;19.034;2023-11-21T23:16:04;10.48;;;6.03;;
22066;SDS011;72821;49.814;19.034;2023-11-21T23:21:06;12.20;;;7.30;;
22066;SDS011;72821;49.814;19.034;2023-11-21T23:26:17;8.75;;;4.70;;
22066;SDS011;72821;49.814;19.034;2023-11-21T23:31:19;7.93;;;4.70;;
22066;SDS011;72821;49.814;19.034;2023-11-21T23:36:21;7.60;;;3.80;;
22066;SDS011;72821;49.814;19.034;2023-11-21T23:41:24;6.85;;;4.40;;
22066;SDS011;72821;49.814;19.034;2023-11-21T23:46:26;9.20;;;4.78;;
22066;SDS011;72821;49.814;19.034;2023-11-21T23:51:29;8.90;;;5.00;;
22066;SDS011;72821;49.814;19.034;2023-11-21T23:56:31;9.52;;;6.20;;
